Time;durP1;ratioP1;P1;durP2;ratioP2;P2;SDS_P1;SDS_P2;PMS_P1;PMS_P2;Temp;Humidity;BMP_temperature;BMP_pressure;BME280_temperature;BME280_humidity;BME280_pressure;Samples;Min_cycle;Max_cycle;Signal;HPM_P1;HPM_P2
2021/03/03 00:00:16;;;;;;;33.15;18.75;;;5.80;86.60;;;;;;6188128;23;20012;-84
2021/03/03 00:03:07;;;;;;;31.75;18.27;;;5.80;86.70;;;;;;6185283;23;20032;-84
2021/03/03 00:06:05;;;;;;;30.63;18.35;;;5.80;86.70;;;;;;6211969;23;20009;-85
2021/03/03 00:08:57;;;;;;;28.88;17.73;;;5.80;86.70;;;;;;6214282;23;20054;-84
2021/03/03 00:12:11;;;;;;;;;;;;;;;;;;;;;
2021/03/03 00:14:47;;;;;;;30.48;17.85;;;5.70;86.60;;;;;;6213127;23;20000;-84
2021/03/03 00:17:22;;;;;;;31.83;18.92;;;5.70;86.60;;;;;;6212414;23;20562;-85
2021/03/03 00:19:51;;;;;;;28.15;18.55;;;5.60;86.60;;;;;;6213769;23;20001;-84
2021/03/03 00:22:25;;;;;;;29.27;17.88;;;5.60;86.60;;;;;;6213716;23;20013;-84
2021/03/03 00:25:03;;;;;;;29.00;18.02;;;5.60;86.60;;;;;;6188062;23;20011;-84
2021/03/03 00:27:40;;;;;;;31.73;17.67;;;5.50;86.60;;;;;;6189025;23;20013;-85
2021/03/03 00:30:30;;;;;;;30.17;17.35;;;5.50;86.70;;;;;;6210202;23;20008;-85
2021/03/03 00:33:12;;;;;;;;;;;;;;;;;;;;;
2021/03/03 00:36:08;;;;;;;33.58;19.33;;;5.50;86.80;;;;;;6215689;23;20080;-84
2021/03/03 00:38:41;;;;;;;28.38;18.00;;;5.50;86.80;;;;;;6213989;23;20087;-85
2021/03/03 00:41:37;;;;;;;;;;;;;;;;;;;;;
2021/03/03 00:44:23;;;;;;;28.08;17.63;;;5.40;86.80;;;;;;6214903;23;20071;-85
2021/03/03 00:46:55;;;;;;;29.95;18.33;;;5.40;86.90;;;;;;6212739;23;20004;-84
2021/03/03 00:49:23;;;;;;;;;;;5.40;86.90;;;;;;6213710;23;20035;-85
2021/03/03 00:51:53;;;;;;;30.15;17.83;;;5.40;86.90;;;;;;6213372;23;19946;-85
2021/03/03 00:54:27;;;;;;;29.90;17.67;;;5.40;87.00;;;;;;6163693;23;20082;-84
2021/03/03 00:57:00;;;;;;;30.58;18.48;;;5.30;87.00;;;;;;6214199;23;20000;-84
2021/03/03 00:59:31;;;;;;;27.80;16.98;;;5.40;87.00;;;;;;6185617;23;20009;-84
2021/03/03 01:02:17;;;;;;;31.52;18.50;;;5.30;87.00;;;;;;6182973;23;20012;-85
2021/03/03 01:05:02;;;;;;;28.40;17.15;;;5.30;87.00;;;;;;6185872;23;20004;-84
2021/03/03 01:07:31;;;;;;;31.02;17.75;;;5.30;87.00;;;;;;6188069;23;20423;-84
2021/03/03 01:10:05;;;;;;;26.75;16.98;;;5.30;87.00;;;;;;6163128;23;20023;-84
2021/03/03 01:12:43;;;;;;;;;;;;;;;;;;;;;
2021/03/03 01:15:24;;;;;;;28.77;17.27;;;5.30;87.10;;;;;;6189751;23;20080;-84
2021/03/03 01:18:00;;;;;;;25.75;16.80;;;5.20;87.10;;;;;;6186724;23;20004;-84
2021/03/03 01:20:41;;;;;;;;;;;;;;;;;;;;;
2021/03/03 01:23:13;;;;;;;28.92;17.05;;;5.20;87.10;;;;;;6190169;23;20506;-85
2021/03/03 01:25:41;;;;;;;29.40;17.67;;;5.20;87.10;;;;;;6188719;23;20058;-84
2021/03/03 01:28:53;;;;;;;30.23;17.38;;;5.20;87.10;;;;;;6184372;23;20083;-85
2021/03/03 01:31:34;;;;;;;;;;;;;;;;;;;;;
2021/03/03 01:34:03;;;;;;;;;;;5.10;87.20;;;;;;6187399;23;20084;-84
2021/03/03 01:36:39;;;;;;;30.23;17.15;;;5.10;87.20;;;;;;6213724;23;20234;-84
2021/03/03 01:39:16;;;;;;;26.90;16.90;;;5.00;87.20;;;;;;6187674;23;20009;-84
2021/03/03 01:41:45;;;;;;;30.08;18.23;;;5.00;87.30;;;;;;6214553;23;20001;-83
2021/03/03 01:44:17;;;;;;;31.45;18.00;;;5.00;87.30;;;;;;6161528;23;20000;-84
2021/03/03 01:47:18;;;;;;;;;;;;;;;;;;;;;
2021/03/03 01:49:46;;;;;;;28.08;17.23;;;5.00;87.50;;;;;;6214010;23;20087;-85
2021/03/03 01:52:27;;;;;;;28.73;16.48;;;5.00;87.50;;;;;;6166093;23;20342;-84
2021/03/03 01:55:01;;;;;;;27.85;16.67;;;4.90;87.50;;;;;;6194832;23;20423;-84
2021/03/03 01:57:30;;;;;;;32.17;18.40;;;4.90;88.10;;;;;;6217205;23;20065;-85
2021/03/03 02:00:09;;;;;;;28.77;17.85;;;4.90;87.60;;;;;;6213226;23;20462;-84
2021/03/03 02:02:38;;;;;;;29.92;17.63;;;4.90;87.60;;;;;;6239453;23;20067;-84
2021/03/03 02:05:07;;;;;;;27.08;17.15;;;4.90;87.60;;;;;;6214696;23;20319;-84
2021/03/03 02:08:02;;;;;;;27.45;16.52;;;4.90;87.60;;;;;;6219117;23;20078;-84
2021/03/03 02:11:04;;;;;;;27.90;17.27;;;4.90;87.70;;;;;;6215145;23;20014;-84
2021/03/03 02:13:45;;;;;;;27.58;17.50;;;4.80;87.70;;;;;;6217648;23;19996;-84
2021/03/03 02:16:20;;;;;;;28.50;17.92;;;4.80;87.70;;;;;;6244794;23;20484;-83
2021/03/03 02:19:23;;;;;;;27.50;16.75;;;4.80;87.70;;;;;;6194097;23;20326;-85
2021/03/03 02:21:58;;;;;;;28.70;16.75;;;4.80;87.70;;;;;;6219694;23;20426;-84
2021/03/03 02:24:48;;;;;;;33.50;17.02;;;4.80;87.70;;;;;;6218175;23;20008;-85
2021/03/03 02:27:25;;;;;;;29.90;16.90;;;4.80;87.70;;;;;;6218205;23;20054;-86
2021/03/03 02:30:17;;;;;;;27.40;17.13;;;4.70;87.60;;;;;;6216337;23;20483;-84
2021/03/03 02:33:01;;;;;;;30.35;17.25;;;4.70;87.70;;;;;;6210561;23;20000;-86
2021/03/03 02:35:55;;;;;;;27.15;16.38;;;4.70;87.70;;;;;;6243757;23;20003;-84
2021/03/03 02:38:44;;;;;;;;;;;;;;;;;;;;;
2021/03/03 02:41:25;;;;;;;29.05;16.63;;;4.70;87.80;;;;;;6243760;23;20091;-85
2021/03/03 02:43:51;;;;;;;27.52;16.00;;;4.70;87.90;;;;;;6217248;23;20414;-83
2021/03/03 02:46:38;;;;;;;30.15;17.40;;;4.70;87.90;;;;;;6216889;23;20354;-84
2021/03/03 02:49:19;;;;;;;;;;;;;;;;;;;;;
2021/03/03 02:51:58;;;;;;;28.50;16.58;;;4.60;87.90;;;;;;6196784;23;20391;-84
2021/03/03 02:54:34;;;;;;;28.95;16.35;;;4.60;87.90;;;;;;6217029;23;20020;-84
2021/03/03 02:57:20;;;;;;;;;;;;;;;;;;;;;
2021/03/03 02:59:58;;;;;;;26.02;16.15;;;4.60;88.00;;;;;;6219440;23;20083;-84
2021/03/03 03:02:30;;;;;;;29.98;16.42;;;4.50;87.90;;;;;;6193533;23;20500;-84
2021/03/03 03:05:04;;;;;;;28.73;17.45;;;4.50;87.90;;;;;;6195159;23;20011;-84
2021/03/03 03:07:37;;;;;;;25.17;15.93;;;4.50;87.90;;;;;;6252208;23;20007;-84
2021/03/03 03:10:07;;;;;;;27.88;16.73;;;4.50;87.90;;;;;;6222028;23;20004;-84
2021/03/03 03:12:48;;;;;;;28.88;16.42;;;4.40;87.90;;;;;;6222427;23;20031;-85
2021/03/03 03:15:40;;;;;;;25.27;16.00;;;4.40;87.90;;;;;;6226641;23;20020;-85
2021/03/03 03:18:57;;;;;;;29.38;17.30;;;4.40;87.90;;;;;;6229052;23;20062;-84
2021/03/03 03:21:29;;;;;;;28.42;16.48;;;4.40;87.90;;;;;;6256578;23;20059;-85
2021/03/03 03:24:23;;;;;;;26.90;16.48;;;4.40;88.00;;;;;;6236262;23;20039;-84
2021/03/03 03:26:53;;;;;;;31.10;17.05;;;4.30;88.00;;;;;;6219234;23;20047;-85
2021/03/03 03:32:10;;;;;;;25.45;15.75;;;4.30;88.00;;;;;;6231892;23;20016;-84
2021/03/03 03:34:56;;;;;;;;;;;;;;;;;;;;;
2021/03/03 03:37:29;;;;;;;26.42;15.40;;;4.30;88.10;;;;;;6231335;23;20036;-84
2021/03/03 03:40:07;;;;;;;26.10;15.85;;;4.30;88.10;;;;;;6226212;23;20034;-84
2021/03/03 03:42:38;;;;;;;26.48;15.45;;;4.20;88.10;;;;;;6219546;23;20046;-85
2021/03/03 03:45:16;;;;;;;26.35;15.57;;;4.20;88.20;;;;;;6218442;23;20031;-85
2021/03/03 03:47:50;;;;;;;29.75;15.82;;;4.20;88.20;;;;;;6218193;23;20083;-84
2021/03/03 03:50:28;;;;;;;;;;;;;;;;;;;;;
2021/03/03 03:53:03;;;;;;;26.63;16.27;;;4.20;88.30;;;;;;6245757;23;20537;-84
2021/03/03 03:55:35;;;;;;;27.75;16.13;;;4.20;88.30;;;;;;6219308;23;20005;-84
2021/03/03 03:58:07;;;;;;;28.15;15.70;;;4.20;88.30;;;;;;6220121;23;20039;-85
2021/03/03 04:00:48;;;;;;;27.95;16.20;;;4.20;88.30;;;;;;6218743;23;20008;-84
2021/03/03 04:03:16;;;;;;;28.58;16.55;;;4.20;88.40;;;;;;6195430;23;20047;-84
2021/03/03 04:08:47;;;;;;;28.25;16.08;;;4.10;88.90;;;;;;6245968;23;20023;-84
2021/03/03 04:11:44;;;;;;;;;;;;;;;;;;;;;
2021/03/03 04:14:32;;;;;;;28.55;16.17;;;4.10;88.40;;;;;;6222411;23;20090;-84
2021/03/03 04:17:17;;;;;;;;;;;;;;;;;;;;;
2021/03/03 04:20:00;;;;;;;28.48;16.40;;;4.00;88.40;;;;;;6243587;23;20079;-85
2021/03/03 04:22:44;;;;;;;;;;;;;;;;;;;;;
2021/03/03 04:25:31;;;;;;;;;;;;;;;;;;;;;
2021/03/03 04:28:18;;;;;;;24.73;15.27;;;4.00;88.50;;;;;;6244595;23;20079;-84
2021/03/03 04:30:46;;;;;;;25.38;15.40;;;4.00;88.60;;;;;;6219590;23;20458;-84
2021/03/03 04:33:24;;;;;;;23.85;14.85;;;4.00;88.60;;;;;;6217882;23;20007;-84
2021/03/03 04:36:01;;;;;;;27.10;16.15;;;4.00;88.60;;;;;;6191152;23;20291;-84
2021/03/03 04:38:38;;;;;;;26.67;15.73;;;4.00;88.60;;;;;;6217737;23;20011;-85
2021/03/03 04:41:12;;;;;;;28.65;15.95;;;4.00;88.70;;;;;;6193930;23;20452;-84
2021/03/03 04:43:48;;;;;;;26.40;16.05;;;4.00;88.70;;;;;;6218438;23;20469;-84
2021/03/03 04:46:20;;;;;;;26.95;16.40;;;4.00;88.80;;;;;;6218100;23;20633;-84
2021/03/03 04:51:41;;;;;;;26.30;15.85;;;4.00;88.80;;;;;;6241541;23;20318;-84
2021/03/03 04:54:12;;;;;;;24.70;15.77;;;4.00;88.80;;;;;;6207950;23;20071;-84
2021/03/03 04:56:54;;;;;;;26.42;15.00;;;3.90;88.80;;;;;;6186760;23;20055;-83
2021/03/03 04:59:22;;;;;;;26.38;15.13;;;3.90;88.80;;;;;;6215562;23;20050;-84
2021/03/03 05:01:50;;;;;;;27.63;15.52;;;3.90;88.80;;;;;;6212490;23;20004;-84
2021/03/03 05:04:21;;;;;;;26.65;16.17;;;3.90;88.80;;;;;;6213639;23;20024;-85
2021/03/03 05:06:52;;;;;;;28.27;15.50;;;3.90;88.80;;;;;;6213365;23;20401;-84
2021/03/03 05:09:52;;;;;;;27.93;16.43;;;3.90;88.80;;;;;;6184920;23;20008;-84
2021/03/03 05:12:21;;;;;;;23.80;15.98;;;3.90;88.90;;;;;;6212880;23;20621;-84
2021/03/03 05:14:54;;;;;;;25.35;15.10;;;3.90;89.00;;;;;;6184823;23;20004;-84
2021/03/03 05:17:57;;;;;;;26.67;15.27;;;3.90;89.00;;;;;;6208568;23;20000;-84
2021/03/03 05:20:26;;;;;;;26.90;15.60;;;3.90;89.10;;;;;;6202478;23;20016;-84
2021/03/03 05:22:55;;;;;;;25.80;14.85;;;3.90;89.10;;;;;;6211574;23;20004;-84
2021/03/03 05:25:44;;;;;;;26.65;15.15;;;3.90;89.10;;;;;;6213470;23;20036;-84
2021/03/03 05:28:13;;;;;;;23.52;14.50;;;3.90;89.10;;;;;;6190413;23;20000;-85
2021/03/03 05:30:38;;;;;;;26.52;15.07;;;3.90;89.20;;;;;;6213089;23;20426;-85
2021/03/03 05:33:10;;;;;;;25.75;15.93;;;3.90;89.20;;;;;;6187949;23;20016;-85
2021/03/03 05:35:36;;;;;;;25.60;15.00;;;3.90;89.20;;;;;;6212157;23;20023;-85
2021/03/03 05:56:10;;;;;;;;;;;;;;;;;;;;;
2021/03/03 06:03:05;;;;;;;;;;;;;;;;;;;;;
2021/03/03 06:22:46;;;;;;;;;;;;;;;;;;;;;
2021/03/03 06:25:51;;;;;;;25.58;15.85;;;3.70;89.60;;;;;;6093293;23;20139;-90
2021/03/03 06:29:06;;;;;;;27.30;15.95;;;3.70;89.70;;;;;;6068299;23;20003;-92
2021/03/03 06:36:32;;;;;;;;;;;;;;;;;;;;;
2021/03/03 06:43:01;;;;;;;;;;;;;;;;;;;;;
2021/03/03 06:53:12;;;;;;;;;;;;;;;;;;;;;
2021/03/03 06:59:52;;;;;;;26.77;16.33;;;3.70;90.00;;;;;;5985475;23;20023;-88
2021/03/03 07:03:01;;;;;;;26.05;14.75;;;3.70;90.00;;;;;;6005759;23;20016;-90
2021/03/03 07:13:12;;;;;;;;;;;;;;;;;;;;;
2021/03/03 07:19:52;;;;;;;;;;;;;;;;;;;;;
2021/03/03 07:27:17;;;;;;;;;;;;;;;;;;;;;
2021/03/03 07:30:17;;;;;;;25.80;14.20;;;4.00;90.20;;;;;;5927495;24;20093;-89
2021/03/03 07:33:39;;;;;;;;;;;;;;;;;;;;;
2021/03/03 07:36:47;;;;;;;21.92;14.68;;;4.20;90.30;;;;;;5937701;23;20096;-90
2021/03/03 07:40:09;;;;;;;;;;;;;;;;;;;;;
2021/03/03 07:43:22;;;;;;;23.35;13.98;;;4.30;90.30;;;;;;6010536;23;20090;-89
2021/03/03 07:46:12;;;;;;;24.00;14.07;;;4.40;90.30;;;;;;5982452;23;20042;-90
2021/03/03 07:49:17;;;;;;;23.83;13.52;;;4.50;90.30;;;;;;6068097;23;20015;-91
2021/03/03 07:52:20;;;;;;;24.55;14.20;;;4.50;90.30;;;;;;6065465;23;20485;-89
2021/03/03 07:55:26;;;;;;;;;;;;;;;;;;;;;
2021/03/03 07:58:32;;;;;;;21.35;15.05;;;4.70;90.30;;;;;;6221639;23;20387;-89
2021/03/03 08:01:49;;;;;;;23.52;14.80;;;4.80;90.30;;;;;;6220309;23;20039;-90
2021/03/03 08:04:47;;;;;;;21.35;14.25;;;5.00;90.30;;;;;;6220547;23;20008;-88
2021/03/03 08:08:12;;;;;;;;;;;;;;;;;;;;;
2021/03/03 08:11:17;;;;;;;23.75;15.80;;;5.20;90.30;;;;;;6125812;23;20088;-89
2021/03/03 08:14:42;;;;;;;;;;;;;;;;;;;;;
2021/03/03 08:18:27;;;;;;;;;;;;;;;;;;;;;
2021/03/03 08:20:47;;;;;;;28.30;17.65;;;5.60;90.30;;;;;;6230205;23;20008;-89
2021/03/03 08:26:53;;;;;;;;;;;;;;;;;;;;;
2021/03/03 08:29:50;;;;;;;;;;;;;;;;;;;;;
2021/03/03 08:43:31;;;;;;;35.08;22.35;;;6.30;90.50;;;;;;6231622;23;20346;-90
2021/03/03 08:50:13;;;;;;;;;;;;;;;;;;;;;
2021/03/03 08:54:10;;;;;;;;;;;;;;;;;;;;;
2021/03/03 08:57:07;;;;;;;;;;;;;;;;;;;;;
2021/03/03 09:03:31;;;;;;;;;;;;;;;;;;;;;
2021/03/03 09:13:50;;;;;;;;;;;;;;;;;;;;;
2021/03/03 09:23:30;;;;;;;;;;;;;;;;;;;;;
2021/03/03 09:26:53;;;;;;;;;;;;;;;;;;;;;
2021/03/03 09:30:21;;;;;;;;;;;;;;;;;;;;;
2021/03/03 09:36:42;;;;;;;37.75;24.33;;;7.40;90.00;;;;;;5947902;24;20016;-90
2021/03/03 09:39:26;;;;;;;37.80;24.52;;;7.50;90.00;;;;;;5948442;24;20004;-90
2021/03/03 09:57:25;;;;;;;39.33;25.15;;;7.90;90.00;;;;;;5911021;24;20033;-89
2021/03/03 10:00:38;;;;;;;41.80;26.83;;;7.90;89.90;;;;;;5953746;24;20042;-91
2021/03/03 10:03:36;;;;;;;36.88;25.17;;;8.00;89.90;;;;;;5944167;24;20483;-91
2021/03/03 10:10:42;;;;;;;;;;;;;;;;;;;;;
2021/03/03 10:14:08;;;;;;;;;;;;;;;;;;;;;
2021/03/03 10:21:11;;;;;;;;;;;;;;;;;;;;;
2021/03/03 10:31:50;;;;;;;;;;;;;;;;;;;;;
2021/03/03 10:42:39;;;;;;;;;;;;;;;;;;;;;
2021/03/03 10:49:25;;;;;;;;;;;;;;;;;;;;;
2021/03/03 10:52:30;;;;;;;;;;;;;;;;;;;;;
2021/03/03 11:03:09;;;;;;;48.10;32.75;;;9.50;89.10;;;;;;6201404;23;19911;-92
2021/03/03 11:06:28;;;;;;;;;;;;;;;;;;;;;
2021/03/03 11:09:50;;;;;;;;;;;;;;;;;;;;;
2021/03/03 11:12:48;;;;;;;;;;;;;;;;;;;;;
2021/03/03 11:15:57;;;;;;;;;;;;;;;;;;;;;
2021/03/03 11:26:04;;;;;;;;;;;;;;;;;;;;;
2021/03/03 11:29:19;;;;;;;55.47;37.10;;;10.40;87.30;;;;;;6218551;23;20101;-91
2021/03/03 11:35:34;;;;;;;57.58;40.38;;;10.50;86.80;;;;;;6223829;23;20514;-90
2021/03/03 11:44:45;;;;;;;52.13;37.80;;;10.70;86.40;;;;;;6224480;23;20005;-90
2021/03/03 11:48:01;;;;;;;;;;;;;;;;;;;;;
2021/03/03 11:50:49;;;;;;;55.00;40.10;;;10.90;85.70;;;;;;6246140;23;20103;-92
2021/03/03 11:54:12;;;;;;;;;;;;;;;;;;;;;
2021/03/03 12:00:51;;;;;;;57.88;40.08;;;11.00;85.40;;;;;;6218762;23;20016;-91
2021/03/03 12:04:05;;;;;;;58.20;40.92;;;11.00;85.30;;;;;;6137513;23;20529;-91
2021/03/03 12:13:28;;;;;;;57.63;42.05;;;11.20;84.90;;;;;;6155771;23;20017;-91
2021/03/03 12:19:45;;;;;;;;;;;;;;;;;;;;;
2021/03/03 12:26:30;;;;;;;58.22;41.72;;;11.40;84.00;;;;;;6033245;23;20010;-90
2021/03/03 12:29:49;;;;;;;;;;;;;;;;;;;;;
2021/03/03 12:33:07;;;;;;;;;;;;;;;;;;;;;
2021/03/03 12:36:48;;;;;;;;;;;;;;;;;;;;;
2021/03/03 12:43:24;;;;;;;69.90;48.10;;;11.70;83.00;;;;;;6170325;23;20013;-89
2021/03/03 12:46:53;;;;;;;62.45;45.65;;;11.70;82.30;;;;;;6173154;23;20031;-89
2021/03/03 12:50:03;;;;;;;61.55;43.40;;;11.80;82.30;;;;;;6176720;23;20076;-91
2021/03/03 12:53:12;;;;;;;65.38;45.22;;;11.80;82.20;;;;;;6217175;23;20004;-89
2021/03/03 13:12:34;;;;;;;;;;;;;;;;;;;;;
2021/03/03 13:15:11;;;;;;;61.40;44.60;;;12.30;81.40;;;;;;6044607;23;20041;-90
2021/03/03 13:21:15;;;;;;;;;;;;;;;;;;;;;
2021/03/03 13:24:18;;;;;;;62.63;43.90;;;12.40;80.70;;;;;;6105953;23;20045;-88
2021/03/03 13:30:29;;;;;;;62.40;45.30;;;12.40;80.60;;;;;;6070603;23;20325;-91
2021/03/03 13:36:13;;;;;;;;;;;;;;;;;;;;;
2021/03/03 13:39:14;;;;;;;;;;;;;;;;;;;;;
2021/03/03 13:42:03;;;;;;;64.82;45.33;;;12.50;79.90;;;;;;6214318;23;20084;-90
2021/03/03 13:51:07;;;;;;;64.88;46.53;;;12.60;79.20;;;;;;6209514;23;19899;-91
2021/03/03 13:54:21;;;;;;;;;;;;;;;;;;;;;
2021/03/03 13:57:55;;;;;;;;;;;;;;;;;;;;;
2021/03/03 14:04:34;;;;;;;71.72;50.15;;;12.60;78.10;;;;;;6172547;23;20012;-89
2021/03/03 14:07:42;;;;;;;70.88;49.35;;;12.60;77.90;;;;;;6191596;23;20028;-90
2021/03/03 14:10:50;;;;;;;;;;;;;;;;;;;;;
2021/03/03 14:13:32;;;;;;;75.10;51.72;;;12.60;77.90;;;;;;6210465;23;20079;-91
2021/03/03 14:16:57;;;;;;;;;;;;;;;;;;;;;
2021/03/03 14:19:44;;;;;;;70.95;49.30;;;12.60;77.10;;;;;;6207926;23;20076;-88
2021/03/03 14:22:58;;;;;;;63.55;46.00;;;12.60;77.40;;;;;;6167171;23;20012;-88
2021/03/03 14:29:04;;;;;;;63.58;45.90;;;12.70;77.60;;;;;;6170711;23;20019;-88
2021/03/03 14:41:29;;;;;;;67.72;47.88;;;12.70;77.50;;;;;;6178201;23;20024;-88
2021/03/03 14:44:10;;;;;;;;;;;;;;;;;;;;;
2021/03/03 14:46:50;;;;;;;;;;;;;;;;;;;;;
2021/03/03 14:49:31;;;;;;;;;;;;;;;;;;;;;
2021/03/03 14:52:12;;;;;;;;;;;;;;;;;;;;;
2021/03/03 14:55:29;;;;;;;;;;;;;;;;;;;;;
2021/03/03 15:01:16;;;;;;;;;;;;;;;;;;;;;
2021/03/03 15:07:12;;;;;;;67.30;46.35;;;12.60;77.20;;;;;;6228045;23;19922;-89
2021/03/03 15:13:42;;;;;;;;;;;;;;;;;;;;;
2021/03/03 15:17:03;;;;;;;67.50;46.83;;;12.60;76.90;;;;;;6222204;23;20087;-91
2021/03/03 15:26:48;;;;;;;;;;;;;;;;;;;;;
2021/03/03 15:29:34;;;;;;;68.60;47.20;;;13.00;76.90;;;;;;6245222;23;20087;-91
2021/03/03 15:32:14;;;;;;;;;;;;;;;;;;;;;
2021/03/03 15:35:27;;;;;;;;;;;;;;;;;;;;;
2021/03/03 15:45:15;;;;;;;69.95;50.22;;;12.70;76.50;;;;;;6106886;23;20418;-90
2021/03/03 15:51:04;;;;;;;;;;;;;;;;;;;;;
2021/03/03 15:53:56;;;;;;;63.40;46.97;;;12.70;76.80;;;;;;6245483;23;20436;-87
2021/03/03 15:57:23;;;;;;;69.25;49.40;;;12.70;76.60;;;;;;6200313;23;20446;-87
2021/03/03 16:03:29;;;;;;;68.22;45.33;;;12.50;76.40;;;;;;6177607;23;20015;-86
2021/03/03 16:12:52;;;;;;;;;;;;;;;;;;;;;
2021/03/03 16:19:30;;;;;;;;;;;;;;;;;;;;;
2021/03/03 16:32:30;;;;;;;;;;;;;;;;;;;;;
2021/03/03 16:38:33;;;;;;;67.95;48.05;;;11.90;77.60;;;;;;6030859;23;20011;-89
2021/03/03 16:41:35;;;;;;;;;;;;;;;;;;;;;
2021/03/03 16:44:20;;;;;;;66.20;48.80;;;11.80;77.80;;;;;;5997298;23;20140;-89
2021/03/03 16:47:08;;;;;;;68.45;47.90;;;11.70;77.80;;;;;;6012267;23;20012;-84
2021/03/03 16:51:16;;;;;;;;;;;;;;;;;;;;;
2021/03/03 16:53:18;;;;;;;75.82;51.97;;;11.60;78.10;;;;;;6198687;23;20015;-85
2021/03/03 16:59:44;;;;;;;78.60;51.53;;;11.50;79.00;;;;;;6198423;23;20013;-86
2021/03/03 17:02:48;;;;;;;;;;;;;;;;;;;;;
2021/03/03 17:08:57;;;;;;;;;;;;;;;;;;;;;
2021/03/03 17:12:30;;;;;;;53.35;39.58;;;11.20;78.80;;;;;;6211854;23;20088;-86
2021/03/03 17:19:06;;;;;;;52.45;35.97;;;11.10;78.70;;;;;;6185013;23;19946;-87
2021/03/03 17:22:16;;;;;;;49.97;35.60;;;11.00;78.80;;;;;;6215179;23;20011;-87
2021/03/03 17:25:08;;;;;;;53.95;35.65;;;10.90;78.90;;;;;;6200479;23;20009;-89
2021/03/03 17:29:04;;;;;;;;;;;;;;;;;;;;;
2021/03/03 17:32:12;;;;;;;;;;;;;;;;;;;;;
2021/03/03 17:34:51;;;;;;;;;;;;;;;;;;;;;
2021/03/03 17:37:36;;;;;;;52.33;36.58;;;10.80;79.30;;;;;;6090555;23;20094;-85
2021/03/03 17:40:30;;;;;;;;;;;;;;;;;;;;;
2021/03/03 17:43:02;;;;;;;54.22;37.75;;;10.80;79.40;;;;;;6091433;23;20117;-84
2021/03/03 17:45:42;;;;;;;52.50;37.13;;;10.70;79.40;;;;;;6067380;23;20099;-86
2021/03/03 17:48:19;;;;;;;49.70;35.58;;;10.70;79.50;;;;;;6191283;23;20007;-84
2021/03/03 17:50:51;;;;;;;52.67;35.95;;;10.70;79.60;;;;;;6211519;23;20009;-84
2021/03/03 17:53:16;;;;;;;;;;;10.60;79.70;;;;;;6216815;23;20060;-83
2021/03/03 17:55:53;;;;;;;48.42;34.78;;;10.60;79.70;;;;;;6220001;23;19912;-84
2021/03/03 17:58:26;;;;;;;53.78;36.70;;;10.50;79.80;;;;;;6231092;23;20015;-85
2021/03/03 18:01:32;;;;;;;48.03;34.30;;;10.50;80.50;;;;;;6233639;23;20038;-86
2021/03/03 18:04:06;;;;;;;54.97;36.25;;;10.50;80.00;;;;;;6231249;23;20012;-84
2021/03/03 18:06:35;;;;;;;55.78;38.45;;;10.40;80.00;;;;;;6208441;23;20026;-84
2021/03/03 18:09:03;;;;;;;56.33;38.25;;;10.40;80.00;;;;;;6229265;23;20087;-83
2021/03/03 18:11:33;;;;;;;54.15;36.20;;;10.40;80.10;;;;;;6228865;23;20004;-83
2021/03/03 18:14:01;;;;;;;52.38;34.63;;;10.30;80.20;;;;;;6206480;23;20004;-84
2021/03/03 18:16:36;;;;;;;49.40;33.42;;;10.30;80.30;;;;;;6229692;23;20024;-82
2021/03/03 18:19:27;;;;;;;52.50;34.65;;;10.20;80.30;;;;;;6219932;23;20027;-83
2021/03/03 18:21:56;;;;;;;53.08;36.40;;;10.20;80.50;;;;;;6191187;23;20020;-83
2021/03/03 18:24:25;;;;;;;53.58;36.95;;;10.10;80.50;;;;;;6193223;23;20015;-83
2021/03/03 18:27:11;;;;;;;49.85;33.25;;;10.10;80.70;;;;;;6192352;23;20008;-83
2021/03/03 18:29:51;;;;;;;57.30;35.40;;;10.00;80.80;;;;;;6216216;23;20007;-83
2021/03/03 18:32:22;;;;;;;55.42;35.65;;;10.00;80.80;;;;;;6190567;23;20425;-83
2021/03/03 18:34:49;;;;;;;60.78;35.58;;;9.90;80.90;;;;;;6215595;23;20712;-83
2021/03/03 18:37:15;;;;;;;56.05;35.35;;;9.80;80.90;;;;;;6215207;23;20058;-83
2021/03/03 18:39:51;;;;;;;54.30;35.03;;;9.80;80.90;;;;;;6207276;23;20649;-83
2021/03/03 18:42:24;;;;;;;57.67;36.63;;;9.80;80.90;;;;;;6212635;23;20016;-82
2021/03/03 18:44:52;;;;;;;59.10;35.50;;;9.70;81.00;;;;;;6214838;23;20008;-83
2021/03/03 18:47:42;;;;;;;57.28;34.85;;;9.60;81.10;;;;;;6210896;23;20024;-83
2021/03/03 18:50:11;;;;;;;56.08;36.42;;;9.50;81.30;;;;;;6184090;23;20008;-84
2021/03/03 18:52:52;;;;;;;55.05;34.80;;;9.50;81.40;;;;;;6185275;23;20019;-85
2021/03/03 18:55:35;;;;;;;59.03;36.03;;;9.40;81.50;;;;;;6185436;23;20009;-84
2021/03/03 18:58:01;;;;;;;56.95;34.28;;;9.40;81.70;;;;;;6178730;23;20056;-84
2021/03/03 19:00:40;;;;;;;;;;;;;;;;;;;;;
2021/03/03 19:03:09;;;;;;;56.45;35.03;;;9.20;81.90;;;;;;6181884;23;20096;-85
2021/03/03 19:05:41;;;;;;;64.68;37.72;;;9.20;81.90;;;;;;6180550;23;20060;-85
2021/03/03 19:11:16;;;;;;;;;;;;;;;;;;;;;
2021/03/03 19:13:57;;;;;;;65.07;38.47;;;9.00;82.30;;;;;;6183000;23;20076;-85
2021/03/03 19:16:28;;;;;;;63.67;38.65;;;8.90;82.40;;;;;;6180389;23;20016;-85
2021/03/03 19:19:27;;;;;;;72.45;40.90;;;8.80;82.40;;;;;;6155398;23;20012;-85
2021/03/03 19:22:28;;;;;;;67.55;38.80;;;8.80;82.60;;;;;;6178638;23;20021;-85
2021/03/03 19:28:04;;;;;;;72.50;41.72;;;8.60;82.90;;;;;;6171966;23;20080;-85
2021/03/03 19:30:37;;;;;;;69.18;40.78;;;8.60;83.10;;;;;;6182104;23;20033;-85
2021/03/03 19:33:04;;;;;;;67.05;39.25;;;8.40;83.10;;;;;;6157227;23;20446;-84
2021/03/03 19:35:34;;;;;;;66.97;40.17;;;8.40;83.40;;;;;;6184283;23;20001;-83
2021/03/03 19:38:06;;;;;;;65.03;37.88;;;8.40;83.50;;;;;;6183361;23;20115;-85
2021/03/03 19:40:57;;;;;;;65.07;40.35;;;8.30;83.60;;;;;;6182857;23;20005;-85
2021/03/03 19:43:26;;;;;;;;;;;8.20;83.70;;;;;;6165826;23;20044;-86
2021/03/03 19:45:54;;;;;;;69.20;39.38;;;8.20;83.80;;;;;;6182144;23;19900;-85
2021/03/03 19:48:33;;;;;;;74.10;38.83;;;8.10;83.80;;;;;;6182356;23;20462;-85
2021/03/03 19:51:10;;;;;;;66.28;38.78;;;8.10;84.00;;;;;;6174944;23;20005;-86
2021/03/03 19:53:36;;;;;;;66.80;38.17;;;8.00;84.10;;;;;;6153546;23;20013;-84
2021/03/03 19:56:08;;;;;;;65.03;39.13;;;8.00;84.10;;;;;;6184252;23;20502;-85
2021/03/03 19:58:36;;;;;;;67.40;39.63;;;8.00;84.10;;;;;;6186987;23;20007;-86
2021/03/03 20:01:03;;;;;;;69.95;40.45;;;7.90;84.20;;;;;;6186391;23;20009;-86
2021/03/03 20:03:38;;;;;;;73.47;41.45;;;7.90;84.30;;;;;;6186735;23;20435;-84
2021/03/03 20:06:07;;;;;;;68.40;39.50;;;7.80;84.40;;;;;;6188200;23;20370;-87
2021/03/03 20:08:41;;;;;;;71.78;38.72;;;7.80;84.50;;;;;;6188182;23;20007;-85
2021/03/03 20:11:12;;;;;;;68.03;39.78;;;7.70;84.50;;;;;;6187937;23;20303;-86
2021/03/03 20:13:58;;;;;;;70.30;39.58;;;7.70;84.60;;;;;;6189362;23;20009;-87
2021/03/03 20:16:25;;;;;;;69.05;39.88;;;7.70;85.40;;;;;;6163943;23;20047;-86
2021/03/03 20:19:40;;;;;;;66.30;38.88;;;7.70;84.80;;;;;;6188674;23;20005;-85
2021/03/03 20:22:09;;;;;;;;;;;;;;;;;;;;;
2021/03/03 20:24:40;;;;;;;64.03;37.47;;;7.50;85.10;;;;;;6214638;23;20351;-85
2021/03/03 20:27:24;;;;;;;68.57;40.15;;;7.50;85.20;;;;;;6163419;23;20028;-86
2021/03/03 20:30:25;;;;;;;66.97;37.47;;;7.50;85.30;;;;;;6213651;23;20084;-85
2021/03/03 20:32:58;;;;;;;71.88;39.13;;;7.40;85.40;;;;;;6188259;23;20005;-87
2021/03/03 20:38:26;;;;;;;74.15;40.28;;;7.20;85.70;;;;;;6214300;23;20005;-86
2021/03/03 20:41:37;;;;;;;73.50;40.80;;;7.10;86.00;;;;;;6187467;23;20326;-86
2021/03/03 20:44:10;;;;;;;76.03;42.63;;;7.00;86.20;;;;;;6188207;23;20020;-86
2021/03/03 20:47:13;;;;;;;;;;;;;;;;;;;;;
2021/03/03 20:49:50;;;;;;;72.32;39.97;;;6.80;86.90;;;;;;6215212;23;20088;-87
2021/03/03 20:52:23;;;;;;;78.15;41.20;;;6.70;87.10;;;;;;6186792;23;20012;-88
2021/03/03 20:55:13;;;;;;;78.03;41.25;;;6.70;87.10;;;;;;6163358;23;20009;-85
2021/03/03 20:57:47;;;;;;;73.97;42.25;;;6.60;87.30;;;;;;6183143;23;20427;-86
2021/03/03 21:00:27;;;;;;;74.50;41.67;;;6.60;87.40;;;;;;6183331;23;20037;-85
2021/03/03 21:03:08;;;;;;;76.80;39.88;;;6.50;87.60;;;;;;6158988;23;20021;-84
2021/03/03 21:05:36;;;;;;;76.25;39.30;;;6.50;87.70;;;;;;6184625;23;20005;-84
2021/03/03 21:08:05;;;;;;;78.25;40.75;;;6.50;87.90;;;;;;6182698;23;20441;-82
2021/03/03 21:10:37;;;;;;;81.30;41.05;;;6.40;88.00;;;;;;6184524;23;20327;-87
2021/03/03 21:13:19;;;;;;;82.20;41.28;;;6.40;88.30;;;;;;6184291;23;20076;-87
2021/03/03 21:15:50;;;;;;;85.25;45.10;;;6.40;88.30;;;;;;6182872;23;20005;-85
2021/03/03 21:21:28;;;;;;;83.07;43.25;;;6.20;88.90;;;;;;6182494;23;20017;-84
2021/03/03 21:24:00;;;;;;;84.38;42.95;;;6.20;89.10;;;;;;6182989;23;20016;-85
2021/03/03 21:26:25;;;;;;;82.05;43.25;;;6.20;89.30;;;;;;6158398;23;20035;-86
2021/03/03 21:29:02;;;;;;;87.63;45.78;;;6.20;89.60;;;;;;6184018;23;20415;-86
2021/03/03 21:31:28;;;;;;;85.30;43.72;;;6.10;89.90;;;;;;6157824;23;20020;-86
2021/03/03 21:33:57;;;;;;;87.22;43.20;;;6.10;90.00;;;;;;6182444;23;20335;-86
2021/03/03 21:36:25;;;;;;;80.18;41.35;;;6.10;90.10;;;;;;6185029;23;20001;-86
2021/03/03 21:38:53;;;;;;;81.15;41.53;;;6.10;90.10;;;;;;6182503;23;19997;-86
2021/03/03 21:41:22;;;;;;;87.97;43.15;;;6.10;90.10;;;;;;6156496;23;20020;-86
2021/03/03 21:43:52;;;;;;;82.68;40.42;;;6.20;90.10;;;;;;6182096;23;20084;-86
2021/03/03 21:46:24;;;;;;;87.97;43.60;;;6.20;90.10;;;;;;6182388;23;20434;-86
2021/03/03 21:48:54;;;;;;;88.13;43.08;;;6.20;90.10;;;;;;6182726;23;20008;-87
2021/03/03 21:51:24;;;;;;;83.03;44.30;;;6.20;90.20;;;;;;6181758;23;20009;-87